Asbury, West Virginia
Current Conditions -  °F | °C
As of 11:55 AM on Monday 22 Dec 2014 (Local Time) from KLWB Reporting Station
Haze Haze  
Wind Chill: 36°   Ceiling: 1000
Heat Index: 36°   Visibility: 2.5mi
Dew Point: 33°   Wind: 0mph
Humidity: 88%   Direction: NA
Pressure: 30.1"   Gusts: NA
Location:  37.82°N, 80.56°W
Report Text: KLWB 221655Z AUTO 00000KT 2 1/2SM BR BKN010 OVC013 02/00 A3010 RMK AO2 T00220004
Loading
Personal Weather Stations






























Interactive Weather Map New forecast layout! Learn more

10-Day Weather Forecast

Advertisements
Track Severe Weather on mobile